• Join FlightAware (Why Join?)
  • Login
  • US Flag 
08:04PM EDT


 

Airport Tracker/Info


-or-


 

Live Flight TrackerFlight Track Log ✈ ASQ4345 ✈ 23-Apr-2013 ✈ KIAH - KCRP

Flight Track Log - Related Links

Times and Time Zones

All times are in EDT time to prevent confusion due to time zone crossing. See the ASQ4345 flight status page for this flight to view local times or setup timezone preferences in your user account.

Time Position Orientation Groundspeed Altitude Reporting Facility
EDT Latitude Longitude Course Direction KTS MPH feet Rate Location/Type
10:55AM 29.9681 -95.3453 206° Southwest 156 180 600  Level Houston Center
10:55AM 29.9497 -95.3281 141° Southeast 166 191 1,900 2,160 Climbing Houston Center
10:56AM 29.9097 -95.2800 134° Southeast 242 278 3,900 1,800 Climbing Houston Center
10:57AM 29.8900 -95.2539 131° Southeast 214 246 4,800 2,400 Climbing Houston Center
10:57AM 29.8606 -95.2256 140° Southeast 253 291 6,400 2,580 Climbing Houston Center
10:58AM 29.8292 -95.2283 184° South 247 284 7,500 2,340 Climbing Houston Center
10:58AM 29.7878 -95.2322 185° South 253 291 8,800 1,920 Climbing Houston Center
10:59AM 29.5885 -95.5564 206° Southwest  Level FlightAware Approximate
10:59AM 29.7594 -95.2331 181° South 251 289 9,500  Level Houston Center
11:00AM 29.5093 -95.6004 206° Southwest  Level FlightAware Approximate
11:00AM 29.6772 -95.2817 207° Southwest 304 350 11,100  Level Houston Center
11:01AM 29.6097 -95.3517 222° Southwest 332 382 12,100 1,020 Climbing Houston Center
11:02AM 29.5381 -95.4283 223° Southwest 351 404 13,300 1,200 Climbing Houston Center
11:03AM 29.4639 -95.5069 223° Southwest 360 414 14,600 1,200 Climbing Houston Center
11:04AM 29.3892 -95.5872 223° Southwest 367 422 15,900 600 Climbing Houston Center
11:05AM 29.2967 -95.6897 224° Southwest 388 447 15,900 1,260 Level Houston Center
11:06AM 29.2244 -95.7750 226° Southwest 377 434 18,600 2,040 Climbing Houston Center
11:07AM 29.1597 -95.8514 226° Southwest 339 390 20,200 1,380 Climbing Houston Center
11:08AM 29.0914 -95.9322 226° Southwest 351 404 21,500 840 Climbing Houston Center
11:09AM 29.0128 -96.0256 226° Southwest 373 429 22,000 240 Climbing Houston Center
11:10AM 28.9325 -96.1169 225° Southwest 400 460 22,000  Level Houston Center
11:11AM 28.8508 -96.2119 226° Southwest 413 475 22,000  Level Houston Center
11:12AM 28.7689 -96.3078 226° Southwest 419 482 22,000  Level Houston Center
11:13AM 28.6864 -96.4031 225° Southwest 421 484 22,000 -300 Level Houston Center
11:14AM 28.5883 -96.5181 226° Southwest 420 483 21,400 -780 Descending Houston Center
11:15AM 28.5106 -96.6083 226° Southwest 402 463 20,400 -1,080 Descending Houston Center
11:16AM 28.4333 -96.6961 225° Southwest 394 453 19,200 -1,500 Descending Houston Center
11:17AM 28.3592 -96.7817 225° Southwest 392 451 17,500 -1,740 Descending Houston Center
11:18AM 28.2811 -96.8728 226° Southwest 389 448 15,600 -1,740 Descending Houston Center
11:19AM 28.2186 -96.9731 235° Southwest 366 421 13,800 -1,860 Descending Houston Center
11:20AM 28.1714 -97.0797 243° Southwest 361 415 12,000 -1,560 Descending Houston Center
11:22AM 28.1256 -97.1800 243° Southwest 324 373 10,500 -1,500 Descending Houston Center
11:23AM 28.0906 -97.2594 243° Southwest 290 334 8,800 -1,680 Descending Houston Center
11:24AM 28.0550 -97.3372 243° Southwest 280 322 7,100 -1,740 Descending Houston Center
11:24AM 28.0222 -97.4067 242° Southwest 276 318 5,600 -1,260 Descending Houston Center
11:26AM 27.9881 -97.4842 243° Southwest 262 302 4,500 -1,140 Descending Houston Center
11:26AM 27.9575 -97.5483 242° Southwest 226 260 3,300 -1,260 Descending Houston Center
11:27AM 27.9322 -97.6064 244° Southwest 211 243 2,200 -660 Descending Houston Center
11:28AM 27.8808 -97.6181 191° South 181 208 2,000 -240 Descending Houston Center